Time;durP1;ratioP1;P1;durP2;ratioP2;P2;SDS_P1;SDS_P2;PMS_P1;PMS_P2;Temp;Humidity;BMP_temperature;BMP_pressure;BME280_temperature;BME280_humidity;BME280_pressure;Samples;Min_cycle;Max_cycle;Signal;HPM_P1;HPM_P2
2023/01/10 00:04:22;;;;;;;4.87;3.63;;;;;;;7.67;54.56;99626.72;10477264;28;20222;-66
2023/01/10 00:09:24;;;;;;;4.63;3.13;;;;;;;7.29;54.96;99614.94;10476428;28;20292;-65
2023/01/10 00:14:27;;;;;;;5.87;3.70;;;;;;;7.50;54.63;99630.44;10475642;28;20223;-63
2023/01/10 00:19:30;;;;;;;3.87;3.53;;;;;;;6.78;55.60;99623.91;10481759;28;20265;-65
2023/01/10 00:24:31;;;;;;;5.00;3.13;;;;;;;7.32;54.69;99614.63;10461262;28;20231;-64
2023/01/10 00:29:34;;;;;;;2.87;2.50;;;;;;;6.25;56.04;99611.75;10473940;28;20236;-64
2023/01/10 00:34:35;;;;;;;2.87;2.50;;;;;;;7.83;53.53;99619.72;10482699;28;20255;-64
2023/01/10 00:39:37;;;;;;;3.70;2.60;;;;;;;6.40;54.96;99647.38;10484846;28;20242;-65
2023/01/10 00:44:39;;;;;;;3.37;2.90;;;;;;;7.38;52.95;99661.06;10471833;28;20727;-64
2023/01/10 00:49:41;;;;;;;3.57;2.90;;;;;;;7.09;53.60;99681.81;10487555;28;20234;-64
2023/01/10 00:54:42;;;;;;;4.13;2.90;;;;;;;7.80;52.56;99695.47;10467570;28;20224;-64
2023/01/10 00:59:44;;;;;;;3.70;3.10;;;;;;;7.70;52.75;99713.47;10473906;28;20244;-64
2023/01/10 01:04:46;;;;;;;2.77;2.57;;;;;;;7.25;52.70;99739.56;10451233;28;20231;-64
2023/01/10 01:15:08;;;;;;;2.63;2.43;;;;;;;6.55;53.64;99771.69;10486489;28;20225;-63
2023/01/10 01:20:10;;;;;;;2.43;2.33;;;;;;;7.11;53.42;99794.25;10484890;28;20227;-63
2023/01/10 01:25:12;;;;;;;2.63;2.40;;;;;;;6.72;53.80;99809.88;10463756;28;20746;-64
2023/01/10 01:30:14;;;;;;;2.43;2.33;;;;;;;7.02;53.22;99816.53;10476076;28;20231;-65
2023/01/10 01:35:16;;;;;;;3.13;2.10;;;;;;;6.50;53.81;99812.06;10480670;28;20223;-63
2023/01/10 01:40:20;;;;;;;2.30;2.10;;;;;;;6.55;54.06;99847.00;10470960;28;20228;-64
2023/01/10 01:45:22;;;;;;;2.53;2.30;;;;;;;6.60;53.18;99844.69;10473616;28;20234;-65
2023/01/10 01:50:31;;;;;;;2.50;2.30;;;;;;;7.51;52.00;99850.41;10483458;28;20592;-64
2023/01/10 01:55:34;;;;;;;2.80;2.60;;;;;;;7.73;52.01;99857.00;10472189;28;20732;-64
2023/01/10 02:00:36;;;;;;;2.97;2.30;;;;;;;7.40;52.28;99893.34;10474972;28;20227;-65
2023/01/10 02:05:41;;;;;;;3.53;2.60;;;;;;;7.70;51.56;99889.28;10467245;28;20253;-65
2023/01/10 02:10:51;;;;;;;3.63;2.40;;;;;;;8.59;50.43;99886.81;10463474;28;21644;-64
2023/01/10 02:15:53;;;;;;;2.83;2.60;;;;;;;7.94;51.45;99922.31;10475849;28;20232;-64
2023/01/10 02:21:36;;;;;;;3.60;2.77;;;;;;;7.94;51.55;99932.97;10478243;28;20236;-64
2023/01/10 02:26:47;;;;;;;3.87;2.30;;;;;;;8.06;51.61;99960.97;10446119;28;20238;-64
2023/01/10 02:32:08;;;;;;;3.00;2.50;;;;;;;7.80;51.32;99945.91;10472506;28;20227;-64
2023/01/10 02:37:29;;;;;;;4.27;2.30;;;;;;;8.28;51.37;99968.34;10483724;28;20233;-63
2023/01/10 02:43:04;;;;;;;3.43;2.80;;;;;;;7.60;52.65;99990.63;10470508;28;20230;-64
2023/01/10 02:48:06;;;;;;;3.00;2.60;;;;;;;6.76;54.19;99965.50;10475702;28;20599;-65
2023/01/10 02:53:21;;;;;;;3.80;2.73;;;;;;;7.90;52.51;99991.94;10450380;28;20228;-65
2023/01/10 02:58:23;;;;;;;5.23;3.10;;;;;;;8.01;52.23;99989.94;10479766;28;20230;-63
2023/01/10 03:03:32;;;;;;;3.40;3.10;;;;;;;8.45;51.72;99982.53;10457761;28;20228;-63
2023/01/10 03:08:57;;;;;;;7.67;3.07;;;;;;;9.33;49.67;99999.69;10468385;28;20261;-64
2023/01/10 03:14:01;;;;;;;7.90;3.17;;;;;;;8.04;51.99;100037.59;10422162;28;20245;-65
2023/01/10 03:19:10;;;;;;;7.53;3.60;;;;;;;7.48;52.00;100003.38;10468319;28;20804;-65
2023/01/10 03:24:16;;;;;;;9.00;3.80;;;;;;;8.31;50.72;100049.84;10456513;28;20234;-65
2023/01/10 03:29:43;;;;;;;8.80;3.90;;;;;;;7.48;51.43;100039.81;10477862;28;20240;-66
2023/01/10 03:34:45;;;;;;;11.63;4.20;;;;;;;7.48;51.73;100077.94;10464999;28;20230;-64
2023/01/10 03:39:57;;;;;;;16.13;4.17;;;;;;;7.86;51.31;100106.97;10477699;28;20609;-64
2023/01/10 03:45:12;;;;;;;11.47;4.63;;;;;;;8.25;50.61;100094.00;10465994;28;20228;-64
2023/01/10 03:50:24;;;;;;;12.87;4.23;;;;;;;8.23;50.08;100071.16;10478571;28;20242;-65
2023/01/10 03:55:28;;;;;;;12.17;4.37;;;;;;;7.59;51.59;100126.59;10443949;28;20258;-63
2023/01/10 04:00:30;;;;;;;8.37;3.83;;;;;;;7.54;52.00;100141.22;10470618;28;20238;-63
2023/01/10 04:05:32;;;;;;;11.67;3.97;;;;;;;8.79;49.46;100101.63;10473571;28;20235;-64
2023/01/10 04:10:34;;;;;;;12.57;3.77;;;;;;;9.38;48.32;100132.69;10460642;28;20234;-64
2023/01/10 04:15:35;;;;;;;8.67;3.53;;;;;;;8.89;49.80;100132.66;10486144;28;20242;-64
2023/01/10 04:20:37;;;;;;;9.53;3.60;;;;;;;6.94;51.98;100119.78;10485277;28;20290;-66
2023/01/10 04:25:39;;;;;;;9.13;3.90;;;;;;;7.69;51.87;100170.78;10473328;28;20273;-65
2023/01/10 04:30:40;;;;;;;10.47;3.60;;;;;;;8.19;50.99;100153.28;10481173;28;20231;-64
2023/01/10 04:35:51;;;;;;;8.57;3.20;;;;;;;7.94;50.97;100189.63;10479229;28;20255;-72
2023/01/10 04:40:55;;;;;;;13.20;4.07;;;;;;;7.81;51.08;100205.16;10482754;28;20748;-64
2023/01/10 04:45:57;;;;;;;13.53;3.77;;;;;;;8.35;49.45;100155.16;10487187;28;20237;-64
2023/01/10 04:50:59;;;;;;;12.73;3.83;;;;;;;8.31;50.35;100203.66;10479500;28;20679;-64
2023/01/10 04:56:05;;;;;;;7.27;3.60;;;;;;;7.03;52.61;100222.63;10478516;28;21107;-66
2023/01/10 05:01:11;;;;;;;14.57;4.83;;;;;;;8.48;50.11;100162.72;10468155;28;20586;-64
2023/01/10 05:06:13;;;;;;;12.50;4.17;;;;;;;6.32;53.88;100170.09;10477630;28;20332;-65
2023/01/10 05:11:15;;;;;;;11.17;3.60;;;;;;;6.73;53.33;100205.13;10476932;28;20232;-64
2023/01/10 05:16:17;;;;;;;12.13;3.53;;;;;;;6.68;53.09;100197.59;10477318;28;20239;-64
2023/01/10 05:21:18;;;;;;;10.67;4.47;;;;;;;7.47;52.12;100212.06;10475143;28;20708;-64
2023/01/10 05:26:22;;;;;;;12.43;3.77;;;;;;;7.18;51.88;100206.97;10479330;28;20483;-63
2023/01/10 05:31:24;;;;;;;12.80;4.53;;;;;;;8.04;50.94;100189.53;10477789;28;20322;-64
2023/01/10 05:36:25;;;;;;;8.87;3.73;;;;;;;7.18;52.41;100246.91;10469739;28;20306;-65
2023/01/10 05:41:27;;;;;;;8.33;3.70;;;;;;;6.90;53.08;100228.34;10473139;28;20230;-64
2023/01/10 05:46:29;;;;;;;16.90;4.67;;;;;;;7.32;51.73;100232.22;10474724;28;20231;-64
2023/01/10 05:51:30;;;;;;;13.13;4.10;;;;;;;7.28;51.51;100215.72;10476845;28;20227;-64
2023/01/10 05:56:32;;;;;;;15.77;4.10;;;;;;;7.47;52.04;100244.00;10473964;28;20736;-64
2023/01/10 06:01:34;;;;;;;9.77;3.53;;;;;;;8.44;50.39;100196.06;10475169;28;20246;-64
2023/01/10 06:06:35;;;;;;;13.17;4.20;;;;;;;8.35;50.27;100213.00;10486209;28;20250;-63
2023/01/10 06:11:37;;;;;;;11.83;4.27;;;;;;;7.40;52.20;100274.09;10468939;28;20235;-61
2023/01/10 06:16:40;;;;;;;14.03;4.03;;;;;;;8.54;49.66;100225.25;10472645;28;20330;-62
2023/01/10 06:21:42;;;;;;;15.53;4.53;;;;;;;8.39;49.89;100235.72;10475581;28;20231;-62
2023/01/10 06:26:43;;;;;;;8.90;3.67;;;;;;;7.09;52.06;100293.91;10468295;28;20234;-61
2023/01/10 06:31:45;;;;;;;11.27;3.90;;;;;;;7.30;51.58;100319.41;10470727;28;20228;-62
2023/01/10 06:36:47;;;;;;;12.33;4.70;;;;;;;8.06;50.97;100320.81;10488590;28;20232;-62
2023/01/10 06:41:48;;;;;;;15.30;4.53;;;;;;;6.65;52.51;100308.75;10472761;28;20235;-59
2023/01/10 06:46:50;;;;;;;8.30;3.77;;;;;;;8.44;49.61;100276.06;10472049;28;20254;-61
2023/01/10 06:51:52;;;;;;;10.97;4.07;;;;;;;7.59;51.39;100335.16;10464963;28;20242;-61
2023/01/10 06:56:54;;;;;;;13.70;4.40;;;;;;;7.96;49.82;100291.56;10468507;28;20352;-61
2023/01/10 07:01:55;;;;;;;10.80;4.37;;;;;;;6.98;52.19;100353.47;10463740;28;20246;-62
2023/01/10 07:06:57;;;;;;;10.07;4.47;;;;;;;8.21;50.56;100335.25;10479867;28;20692;-61
2023/01/10 07:11:59;;;;;;;15.70;5.27;;;;;;;8.16;50.47;100326.03;10471378;28;20239;-62
2023/01/10 07:17:00;;;;;;;16.33;7.17;;;;;;;8.23;49.70;100348.41;10476018;28;20247;-62
2023/01/10 07:22:02;;;;;;;10.93;4.80;;;;;;;7.93;50.68;100403.81;10478819;28;20246;-62
2023/01/10 07:27:04;;;;;;;10.20;4.90;;;;;;;8.24;49.93;100366.09;10471608;28;20239;-61
2023/01/10 07:32:05;;;;;;;13.50;5.17;;;;;;;8.68;49.03;100350.06;10470541;28;20735;-62
2023/01/10 07:37:07;;;;;;;8.87;4.43;;;;;;;7.75;50.47;100425.09;10439147;28;20419;-62
2023/01/10 07:42:09;;;;;;;13.67;5.13;;;;;;;7.10;51.10;100409.16;10474722;28;20238;-62
2023/01/10 07:47:11;;;;;;;11.43;5.33;;;;;;;6.85;51.26;100389.38;10486550;28;20231;-61
2023/01/10 07:52:12;;;;;;;15.43;6.17;;;;;;;8.79;49.29;100389.81;10481254;28;20751;-61
2023/01/10 07:57:14;;;;;;;8.53;4.93;;;;;;;7.46;51.57;100463.38;10480436;28;20227;-62
2023/01/10 08:02:16;;;;;;;12.47;6.07;;;;;;;7.08;52.05;100445.72;10478931;28;20232;-61
2023/01/10 08:07:17;;;;;;;9.07;4.90;;;;;;;7.73;50.88;100411.09;10488537;28;20231;-62
2023/01/10 08:12:20;;;;;;;10.10;5.97;;;;;;;7.85;51.28;100443.72;10478077;28;20736;-61
2023/01/10 08:17:22;;;;;;;14.00;5.17;;;;;;;7.48;51.06;100428.63;10476868;28;20291;-61
2023/01/10 08:22:24;;;;;;;14.70;5.67;;;;;;;7.17;51.89;100468.81;10478394;28;20616;-61
2023/01/10 08:27:25;;;;;;;12.43;5.03;;;;;;;6.94;52.02;100441.72;10485902;28;20235;-62
2023/01/10 08:32:27;;;;;;;15.60;6.07;;;;;;;7.38;51.09;100459.78;10469899;28;20231;-61
2023/01/10 08:37:28;;;;;;;11.70;5.23;;;;;;;6.93;52.00;100467.47;10481875;28;20323;-62
2023/01/10 08:42:30;;;;;;;11.77;5.13;;;;;;;6.91;52.11;100460.63;10460343;28;20249;-62
2023/01/10 08:47:32;;;;;;;12.23;4.63;;;;;;;7.99;50.92;100445.84;10485801;28;20238;-62
2023/01/10 08:52:36;;;;;;;11.30;4.13;;;;;;;7.83;51.00;100481.13;10478718;28;20231;-62
2023/01/10 08:57:37;;;;;;;11.97;4.70;;;;;;;8.41;49.87;100429.22;10473790;28;20235;-62
2023/01/10 09:02:40;;;;;;;7.07;3.77;;;;;;;5.19;54.01;100240.69;10479029;28;20842;-62
2023/01/10 09:07:41;;;;;;;12.40;5.03;;;;;;;8.35;49.79;100424.50;10481754;28;20234;-61
2023/01/10 09:12:55;;;;;;;9.23;4.10;;;;;;;8.04;49.76;100446.22;10478740;28;20235;-60
2023/01/10 09:17:59;;;;;;;11.37;4.17;;;;;;;8.17;50.40;100503.66;10468905;28;20232;-62
2023/01/10 09:23:16;;;;;;;10.77;4.30;;;;;;;7.82;50.58;100522.09;10491977;28;20721;-61
2023/01/10 09:28:19;;;;;;;10.77;3.90;;;;;;;8.26;49.77;100471.59;10453024;28;20313;-61
2023/01/10 09:33:21;;;;;;;14.93;5.10;;;;;;;7.65;49.60;100489.06;10484487;28;20230;-61
2023/01/10 09:38:23;;;;;;;10.13;4.30;;;;;;;6.98;50.87;100486.50;10480364;28;20455;-62
2023/01/10 09:43:49;;;;;;;10.77;3.83;;;;;;;9.24;48.47;100494.72;10479444;28;20707;-60
2023/01/10 09:48:53;;;;;;;8.57;3.63;;;;;;;8.05;49.66;100533.22;10472685;28;20236;-62
2023/01/10 09:53:59;;;;;;;9.53;4.03;;;;;;;8.77;49.14;100532.41;10466677;28;20722;-61
2023/01/10 09:59:19;;;;;;;8.53;4.00;;;;;;;8.44;50.54;100556.94;10480939;28;20316;-61
2023/01/10 10:04:36;;;;;;;11.00;3.70;;;;;;;8.33;50.47;100557.16;10466175;28;20613;-61
2023/01/10 10:09:37;;;;;;;9.33;4.20;;;;;;;8.19;50.76;100547.84;10479766;28;20792;-62
2023/01/10 10:14:58;;;;;;;10.43;4.30;;;;;;;8.09;50.45;100561.25;10470725;28;20239;-60
2023/01/10 10:20:33;;;;;;;6.70;4.80;;;;;;;7.90;50.30;100537.38;10480194;28;20615;-60
2023/01/10 10:25:41;;;;;;;7.57;4.27;;;;;;;8.18;50.19;100524.84;10462413;28;20235;-62
2023/01/10 10:31:08;;;;;;;7.70;4.33;;;;;;;8.76;50.11;100509.38;10466481;28;20223;-61
2023/01/10 10:36:29;;;;;;;8.63;4.10;;;;;;;8.23;50.29;100551.88;10456964;28;20231;-60
2023/01/10 10:41:36;;;;;;;7.33;3.90;;;;;;;8.46;49.47;100504.28;10473276;28;20237;-61
2023/01/10 10:46:37;;;;;;;10.47;4.00;;;;;;;8.49;50.06;100508.50;10471597;28;20251;-62
2023/01/10 10:51:49;;;;;;;28.27;16.73;;;;;;;8.46;50.09;100524.78;10465860;28;20630;-62
2023/01/10 10:56:54;;;;;;;10.37;6.40;;;;;;;9.10;49.46;100492.63;10468638;28;20238;-62
2023/01/10 11:06:20;;;;;;;11.90;6.90;;;;;;;4.63;57.98;100403.81;10510055;27;21449;-61
2023/01/10 11:11:34;;;;;;;12.67;4.60;;;;;;;5.00;57.61;100422.72;10510796;28;20238;-61
2023/01/10 11:16:38;;;;;;;12.67;4.17;;;;;;;5.11;57.09;100404.03;10479526;28;20245;-62
2023/01/10 11:21:44;;;;;;;7.10;3.23;;;;;;;4.63;57.77;100383.44;10475910;28;20261;-62
2023/01/10 11:26:46;;;;;;;8.53;4.20;;;;;;;5.90;55.26;100391.84;10488387;28;20741;-62
2023/01/10 11:31:49;;;;;;;6.87;3.30;;;;;;;5.82;55.53;100432.38;10499159;28;20236;-62
2023/01/10 11:37:20;;;;;;;12.30;3.67;;;;;;;5.80;55.18;100439.63;10485686;28;20295;-62
2023/01/10 11:42:31;;;;;;;8.17;3.53;;;;;;;4.81;55.98;100388.13;10491780;28;20702;-61
2023/01/10 11:47:34;;;;;;;7.40;3.97;;;;;;;5.43;55.60;100418.97;10457045;28;20917;-62
2023/01/10 11:52:47;;;;;;;8.77;3.80;;;;;;;5.57;55.06;100420.41;10473399;28;20233;-62
2023/01/10 11:57:57;;;;;;;8.63;3.60;;;;;;;6.42;53.41;100380.91;10494344;28;20748;-62
2023/01/10 12:03:00;;;;;;;10.43;4.10;;;;;;;5.97;53.60;100403.56;10500559;28;20243;-62
2023/01/10 12:08:09;;;;;;;10.47;3.97;;;;;;;6.03;54.10;100416.31;10476813;28;20238;-62
2023/01/10 12:13:15;;;;;;;9.63;3.80;;;;;;;5.79;53.29;100389.31;10471415;28;20282;-66
2023/01/10 12:18:18;;;;;;;6.63;3.73;;;;;;;6.96;51.77;100379.38;10447328;28;20335;-66
2023/01/10 12:23:24;;;;;;;8.57;4.13;;;;;;;6.64;52.46;100382.41;10468020;28;20227;-66
2023/01/10 12:28:28;;;;;;;10.70;4.37;;;;;;;7.11;51.18;100370.94;10466962;28;20728;-66
2023/01/10 12:33:39;;;;;;;11.97;3.70;;;;;;;7.10;51.10;100380.72;10445901;28;20640;-66
2023/01/10 12:39:05;;;;;;;7.03;4.13;;;;;;;7.10;50.00;100377.22;10479184;28;20228;-65
2023/01/10 12:44:18;;;;;;;6.57;3.20;;;;;;;7.69;49.47;100373.22;10454749;28;20231;-67
2023/01/10 12:49:28;;;;;;;10.27;4.30;;;;;;;6.09;50.02;100390.16;10445444;28;20235;-64
2023/01/10 12:54:30;;;;;;;5.90;3.20;;;;;;;6.12;49.54;100392.53;10450904;28;20224;-65
2023/01/10 12:59:40;;;;;;;7.30;3.07;;;;;;;6.49;49.23;100397.13;10447156;28;20242;-65
2023/01/10 13:04:45;;;;;;;7.00;3.53;;;;;;;6.74;49.08;100385.88;10449436;28;20241;-67
2023/01/10 13:09:48;;;;;;;9.40;3.77;;;;;;;5.40;49.16;100382.09;10443639;28;20640;-64
2023/01/10 13:15:00;;;;;;;7.97;3.93;;;;;;;6.21;49.48;100410.28;10439655;28;20283;-65
2023/01/10 13:20:20;;;;;;;9.87;3.63;;;;;;;6.84;47.96;100382.38;10442936;28;20314;-67
2023/01/10 13:25:33;;;;;;;6.33;3.03;;;;;;;7.03;48.61;100389.44;10436873;28;20628;-66
2023/01/10 13:30:42;;;;;;;8.00;3.47;;;;;;;6.53;48.17;100414.47;10444609;28;20711;-67
2023/01/10 13:35:44;;;;;;;6.17;2.70;;;;;;;6.24;49.43;100428.63;10438565;28;20732;-66
2023/01/10 13:41:05;;;;;;;8.50;3.90;;;;;;;6.72;48.35;100425.06;10439355;28;20228;-65
2023/01/10 13:46:16;;;;;;;7.03;2.90;;;;;;;6.38;48.42;100419.38;10454308;28;20242;-64
2023/01/10 13:51:21;;;;;;;3.80;2.77;;;;;;;6.53;48.13;100439.25;10440918;28;20268;-65
2023/01/10 13:56:35;;;;;;;6.53;3.20;;;;;;;7.39;46.86;100413.50;10450683;28;20744;-67
2023/01/10 14:07:01;;;;;;;7.00;3.00;;;;;;;8.25;46.01;100411.28;10485952;28;20280;-65
2023/01/10 14:12:07;;;;;;;4.03;3.20;;;;;;;7.71;46.68;100407.72;10476811;28;20231;-64
2023/01/10 14:17:19;;;;;;;7.60;2.70;;;;;;;7.96;46.78;100403.50;10483693;28;20231;-65
2023/01/10 14:22:34;;;;;;;8.27;2.80;;;;;;;7.64;47.16;100412.81;10491461;28;20228;-65
2023/01/10 14:27:43;;;;;;;9.13;3.13;;;;;;;7.09;47.52;100418.13;10479071;28;20230;-65
2023/01/10 14:32:51;;;;;;;4.70;3.00;;;;;;;7.15;47.26;100406.91;10481890;28;20316;-66
2023/01/10 14:37:58;;;;;;;7.50;2.83;;;;;;;7.23;47.60;100433.63;10459890;28;20228;-65
2023/01/10 14:43:05;;;;;;;5.90;3.17;;;;;;;8.91;45.80;100373.53;10479746;28;20242;-66
2023/01/10 14:48:28;;;;;;;7.67;4.10;;;;;;;8.60;45.88;100387.34;10481668;28;20754;-64
2023/01/10 14:53:29;;;;;;;5.87;3.27;;;;;;;9.66;45.17;100373.66;10478634;28;20228;-66
2023/01/10 14:58:31;;;;;;;7.43;3.20;;;;;;;8.73;46.40;100371.75;10463071;28;20233;-66
2023/01/10 15:03:32;;;;;;;5.30;2.90;;;;;;;6.62;49.20;100377.22;10460044;28;20243;-65
2023/01/10 15:08:34;;;;;;;4.73;2.90;;;;;;;7.40;48.76;100405.38;10473836;28;20231;-66
2023/01/10 15:13:52;;;;;;;5.70;2.90;;;;;;;6.88;50.05;100387.25;10484890;28;20250;-65
2023/01/10 15:18:55;;;;;;;7.83;2.90;;;;;;;7.09;48.21;100356.91;10482377;28;20316;-66
2023/01/10 15:23:57;;;;;;;3.03;2.70;;;;;;;6.65;49.05;100353.97;10487584;28;20611;-66
2023/01/10 15:29:23;;;;;;;3.90;2.33;;;;;;;6.01;49.76;100335.91;10475930;28;20228;-65
2023/01/10 15:34:28;;;;;;;3.57;2.50;;;;;;;6.28;49.30;100322.84;10478881;28;20227;-66
2023/01/10 15:39:36;;;;;;;3.87;2.80;;;;;;;6.59;48.59;100302.22;10481351;28;20837;-65
2023/01/10 15:44:51;;;;;;;7.03;3.50;;;;;;;6.60;48.84;100323.34;10495158;28;20244;-64
2023/01/10 15:49:53;;;;;;;5.07;2.57;;;;;;;6.01;48.65;100295.22;10479518;28;20244;-65
2023/01/10 15:54:55;;;;;;;10.30;3.50;;;;;;;5.93;48.57;100303.06;10484235;28;20645;-64
2023/01/10 15:59:58;;;;;;;5.73;3.07;;;;;;;6.13;48.25;100299.41;10482972;28;20246;-64
2023/01/10 16:05:13;;;;;;;4.63;3.30;;;;;;;5.42;48.15;100268.66;10481252;28;20232;-67
2023/01/10 16:10:24;;;;;;;6.13;3.00;;;;;;;6.43;47.27;100298.34;10491977;28;20227;-65
2023/01/10 16:15:29;;;;;;;5.03;2.60;;;;;;;6.42;47.43;100296.66;10483622;28;20230;-65
2023/01/10 16:20:35;;;;;;;9.13;3.13;;;;;;;6.84;47.42;100265.34;10492361;28;20758;-67
2023/01/10 16:25:38;;;;;;;5.70;2.90;;;;;;;5.47;48.73;100260.28;10474535;28;20234;-64
2023/01/10 16:30:44;;;;;;;6.47;3.20;;;;;;;7.18;47.19;100274.34;10492770;28;20239;-65
2023/01/10 16:35:47;;;;;;;6.43;3.17;;;;;;;7.48;46.87;100255.53;10485716;28;20234;-63
2023/01/10 16:40:53;;;;;;;7.70;3.33;;;;;;;7.16;47.63;100254.22;10486875;28;20238;-62
2023/01/10 16:45:58;;;;;;;10.47;3.43;;;;;;;7.84;45.71;100245.69;10488582;28;20255;-64
2023/01/10 16:51:21;;;;;;;9.07;3.23;;;;;;;6.37;47.30;100277.66;10492591;28;20245;-62
2023/01/10 16:56:25;;;;;;;6.37;2.67;;;;;;;6.13;48.63;100261.38;10482056;28;20231;-68
2023/01/10 17:01:36;;;;;;;8.80;3.13;;;;;;;6.75;47.91;100228.00;10471478;28;20254;-64
2023/01/10 17:06:40;;;;;;;5.30;3.17;;;;;;;6.95;46.92;100247.34;10485995;28;20325;-64
2023/01/10 17:11:42;;;;;;;8.60;3.27;;;;;;;6.96;47.75;100270.28;10490032;28;20240;-65
2023/01/10 17:16:43;;;;;;;9.33;3.80;;;;;;;7.47;47.33;100237.84;10484485;28;20285;-63
2023/01/10 17:21:45;;;;;;;6.30;3.47;;;;;;;6.55;48.92;100275.09;10483250;28;20798;-62
2023/01/10 17:26:47;;;;;;;6.63;3.57;;;;;;;6.91;47.60;100245.94;10469950;28;20234;-62
2023/01/10 17:31:49;;;;;;;7.33;3.40;;;;;;;7.18;47.35;100226.44;10466061;28;20306;-63
2023/01/10 17:36:51;;;;;;;4.13;2.77;;;;;;;7.09;48.21;100250.44;10465172;28;20296;-64
2023/01/10 17:41:52;;;;;;;7.67;3.43;;;;;;;5.85;50.16;100213.44;10481537;28;20238;-64
2023/01/10 17:46:55;;;;;;;7.13;3.43;;;;;;;6.67;49.01;100219.03;10486838;28;20739;-62
2023/01/10 17:51:57;;;;;;;9.60;3.23;;;;;;;5.21;50.06;100169.75;10484618;28;20244;-64
2023/01/10 17:57:00;;;;;;;9.60;3.77;;;;;;;5.81;49.97;100177.56;10482107;28;20227;-62
2023/01/10 18:02:02;;;;;;;4.67;2.70;;;;;;;5.85;50.03;100169.13;10477369;28;20664;-62
2023/01/10 18:07:04;;;;;;;5.40;2.50;;;;;;;5.42;50.50;100162.50;10478195;28;20231;-62
2023/01/10 18:12:06;;;;;;;6.93;2.70;;;;;;;5.37;50.96;100126.72;10492468;22;20224;-35
2023/01/10 18:17:10;;;;;;;12.70;2.93;;;;;;;5.89;50.20;100148.44;10476896;28;20239;-36
2023/01/10 18:27:32;;;;;;;8.63;3.50;;;;;;;6.90;48.35;100145.00;10489013;28;20234;-36
2023/01/10 18:32:33;;;;;;;6.87;3.30;;;;;;;5.46;50.63;100123.22;10484587;28;20230;-36
2023/01/10 18:37:35;;;;;;;7.43;3.40;;;;;;;6.68;48.78;100130.28;10492707;28;20807;-36
2023/01/10 18:42:37;;;;;;;8.60;3.37;;;;;;;5.99;49.01;100140.44;10467979;28;20246;-36
2023/01/10 18:47:39;;;;;;;7.77;3.53;;;;;;;5.92;49.12;100142.00;10484011;28;20231;-36
2023/01/10 18:52:41;;;;;;;9.33;3.70;;;;;;;6.97;47.83;100130.09;10491008;28;20584;-36
2023/01/10 18:57:42;;;;;;;8.90;3.70;;;;;;;7.40;47.87;100117.00;10479082;28;20252;-37
2023/01/10 19:02:45;;;;;;;10.67;3.63;;;;;;;6.26;48.83;100152.91;10489701;28;20235;-36
2023/01/10 19:07:46;;;;;;;7.57;3.43;;;;;;;5.92;49.03;100128.72;10488276;28;20233;-36
2023/01/10 19:12:48;;;;;;;6.30;2.97;;;;;;;6.79;48.18;100108.81;10477684;28;20327;-36
2023/01/10 19:17:50;;;;;;;8.23;3.33;;;;;;;7.25;47.75;100109.53;10477006;28;20779;-36
2023/01/10 19:22:51;;;;;;;9.83;3.70;;;;;;;7.58;46.57;100088.47;10481849;28;20250;-36
2023/01/10 19:27:53;;;;;;;6.50;3.23;;;;;;;6.94;46.71;100117.13;10502690;28;20571;-36
2023/01/10 19:32:56;;;;;;;6.67;3.30;;;;;;;7.24;46.89;100123.00;10489933;28;20232;-36
2023/01/10 19:37:58;;;;;;;5.30;3.30;;;;;;;7.41;46.25;100098.19;10496429;28;20322;-36
2023/01/10 19:43:00;;;;;;;6.63;2.53;;;;;;;5.86;49.27;100095.63;10487742;28;20235;-36
2023/01/10 19:48:02;;;;;;;8.97;3.43;;;;;;;6.33;48.69;100103.50;10495244;28;20503;-36
2023/01/10 19:53:04;;;;;;;4.87;2.63;;;;;;;4.08;50.94;99951.88;10486886;28;20241;-36
2023/01/10 19:58:06;;;;;;;5.63;2.80;;;;;;;5.45;49.51;100071.97;10494600;28;20235;-36
2023/01/10 20:03:08;;;;;;;5.30;2.77;;;;;;;5.94;48.16;100065.66;10480955;28;20227;-36
2023/01/10 20:08:09;;;;;;;4.07;2.60;;;;;;;5.06;49.87;100036.69;10485703;28;20594;-36
2023/01/10 20:13:11;;;;;;;3.27;2.70;;;;;;;6.09;48.48;100061.50;10477280;28;20235;-36
2023/01/10 20:18:13;;;;;;;6.87;4.00;;;;;;;5.88;49.88;100036.03;10482079;28;20240;-38
2023/01/10 20:23:16;;;;;;;5.43;2.60;;;;;;;4.96;50.78;100036.72;10479231;28;20242;-36
2023/01/10 20:28:18;;;;;;;7.20;2.90;;;;;;;5.68;50.23;100037.13;10473408;28;20240;-36
2023/01/10 20:33:20;;;;;;;4.17;2.43;;;;;;;4.79;51.77;100002.97;10475757;28;20228;-36
2023/01/10 20:38:23;;;;;;;4.90;2.50;;;;;;;6.72;49.08;100010.16;10474740;28;20246;-37
2023/01/10 20:43:25;;;;;;;3.50;2.43;;;;;;;5.33;52.62;100018.22;10471643;28;20605;-36
2023/01/10 20:48:28;;;;;;;3.43;2.30;;;;;;;5.40;50.53;100044.16;10463967;28;20741;-36
2023/01/10 20:53:30;;;;;;;5.47;2.77;;;;;;;6.67;49.31;100012.44;10487159;28;20238;-36
2023/01/10 20:58:33;;;;;;;7.97;3.53;;;;;;;6.81;48.92;99992.47;10489405;28;20735;-36
2023/01/10 21:03:36;;;;;;;8.07;4.57;;;;;;;5.85;49.88;100017.75;10487516;28;20314;-36
2023/01/10 21:08:38;;;;;;;3.93;3.00;;;;;;;6.71;48.82;99989.03;10485512;28;20334;-36
2023/01/10 21:13:40;;;;;;;1.90;1.80;;;;;;;5.39;50.38;100002.69;10491554;28;20227;-36
2023/01/10 21:18:45;;;;;;;3.33;2.40;;;;;;;6.91;48.21;99985.22;10484840;28;20743;-36
2023/01/10 21:23:47;;;;;;;5.90;2.67;;;;;;;7.26;47.58;99970.16;10498166;28;20241;-36
2023/01/10 21:28:49;;;;;;;3.10;2.30;;;;;;;6.10;48.68;100023.34;10467058;28;20236;-36
2023/01/10 21:33:52;;;;;;;4.90;2.67;;;;;;;7.18;47.76;99962.94;10488651;28;20222;-36
2023/01/10 21:38:54;;;;;;;4.43;2.10;;;;;;;5.43;49.96;99996.09;10482193;28;20585;-35
2023/01/10 21:43:56;;;;;;;3.13;2.20;;;;;;;6.07;49.30;99997.06;10492413;28;20231;-36
2023/01/10 21:48:59;;;;;;;5.93;2.50;;;;;;;6.94;48.18;99954.81;10476437;28;20338;-36
2023/01/10 21:54:00;;;;;;;3.03;2.23;;;;;;;6.67;47.30;99983.19;10472783;22;20228;-59
2023/01/10 21:59:02;;;;;;;3.27;2.40;;;;;;;5.68;48.90;99989.31;10434178;28;20236;-62
2023/01/10 22:04:04;;;;;;;3.87;2.37;;;;;;;6.42;47.67;99979.47;10426530;28;20316;-62
2023/01/10 22:09:05;;;;;;;5.67;2.53;;;;;;;6.31;47.34;99974.38;10430581;28;20247;-62
2023/01/10 22:14:09;;;;;;;4.90;2.50;;;;;;;5.61;48.45;99972.31;10426886;28;20278;-62
2023/01/10 22:19:12;;;;;;;4.10;1.90;;;;;;;5.62;48.54;99973.97;10430060;28;20238;-62
2023/01/10 22:24:14;;;;;;;4.93;2.40;;;;;;;5.33;48.86;99981.06;10429446;28;20716;-61
2023/01/10 22:29:15;;;;;;;2.90;2.70;;;;;;;5.86;48.42;99989.38;10431287;28;20246;-62
2023/01/10 22:34:17;;;;;;;4.93;2.67;;;;;;;7.43;46.98;99935.63;10434246;28;20278;-62
2023/01/10 22:39:19;;;;;;;3.27;2.43;;;;;;;7.04;46.90;99950.22;10426429;28;20246;-62
2023/01/10 22:44:25;;;;;;;2.50;2.30;;;;;;;6.59;48.08;99975.13;10435534;28;20621;-62
2023/01/10 22:49:27;;;;;;;3.17;2.37;;;;;;;6.64;47.86;99956.91;10420717;28;20689;-62
2023/01/10 22:54:29;;;;;;;3.33;2.30;;;;;;;6.61;48.44;99970.50;10430812;28;20224;-61
2023/01/10 22:59:32;;;;;;;3.10;2.33;;;;;;;6.63;47.85;99977.34;10412803;28;20236;-62
2023/01/10 23:04:33;;;;;;;5.37;2.23;;;;;;;7.06;47.14;99974.03;10432229;28;20263;-61
2023/01/10 23:09:35;;;;;;;4.97;2.60;;;;;;;7.50;47.48;99916.16;10413372;28;20326;-62
2023/01/10 23:14:37;;;;;;;2.63;2.10;;;;;;;7.61;47.72;99911.53;10432186;28;20251;-62
2023/01/10 23:19:38;;;;;;;6.37;2.80;;;;;;;8.30;46.23;99896.19;10434465;28;20236;-62
2023/01/10 23:24:40;;;;;;;3.90;2.90;;;;;;;6.48;49.59;99954.09;10430113;28;20247;-62
2023/01/10 23:29:42;;;;;;;2.37;2.00;;;;;;;6.99;48.44;99971.16;10432701;28;20293;-62
2023/01/10 23:34:43;;;;;;;5.27;2.80;;;;;;;8.40;47.21;99899.50;10425924;28;20234;-62
2023/01/10 23:39:45;;;;;;;4.33;2.43;;;;;;;6.67;49.25;99979.66;10423657;28;20667;-61
2023/01/10 23:44:47;;;;;;;5.03;2.33;;;;;;;7.28;48.40;99983.31;10425122;28;20731;-62
2023/01/10 23:49:48;;;;;;;3.30;2.60;;;;;;;8.11;47.92;99900.00;10422737;28;20902;-62
2023/01/10 23:54:50;;;;;;;1.93;1.83;;;;;;;6.34;49.76;99936.88;10430921;28;20239;-61
2023/01/10 23:59:51;;;;;;;5.47;2.40;;;;;;;8.03;47.63;99924.84;10424196;28;20232;-62
